createdAt,value
2023-04-19T00:00:58.188Z,101390.01
2023-04-19T00:04:26.396Z,101383.37
2023-04-19T00:07:54.074Z,101376.23
2023-04-19T00:11:21.140Z,101371.67
2023-04-19T00:14:48.842Z,101374.39
2023-04-19T00:18:15.905Z,101372.24
2023-04-19T00:21:43.293Z,101369.77
2023-04-19T00:25:10.878Z,101364.02
2023-04-19T00:28:38.614Z,101364.69
2023-04-19T00:32:07.877Z,101364.02
2023-04-19T00:35:36.373Z,101357.40
2023-04-19T00:39:04.570Z,101351.09
2023-04-19T00:42:31.499Z,101349.27
2023-04-19T00:45:58.601Z,101336.92
2023-04-19T00:49:27.512Z,101333.20
2023-04-19T00:52:56.792Z,101325.70
2023-04-19T00:56:30.905Z,101316.98
2023-04-19T01:00:02.747Z,101313.39
2023-04-19T01:03:33.068Z,101313.45
2023-04-19T01:07:00.583Z,101313.02
2023-04-19T01:10:27.644Z,101316.16
2023-04-19T01:13:55.079Z,101321.33
2023-04-19T01:17:23.689Z,101323.73
2023-04-19T01:20:50.267Z,101311.73
2023-04-19T01:24:18.279Z,101305.73
2023-04-19T01:27:45.919Z,101297.11
2023-04-19T01:31:14.400Z,101293.52
2023-04-19T01:34:43.070Z,101287.69
2023-04-19T01:38:10.006Z,101280.69
2023-04-19T01:41:37.140Z,101276.95
2023-04-19T01:45:04.514Z,101268.20
2023-04-19T01:48:33.732Z,101267.25
2023-04-19T01:52:01.109Z,101262.71
2023-04-19T01:55:28.085Z,101265.38
2023-04-19T01:58:54.991Z,101259.98
2023-04-19T02:02:22.319Z,101247.85
2023-04-19T02:05:49.694Z,101246.73
2023-04-19T02:09:16.714Z,101247.81
2023-04-19T02:12:46.576Z,101247.48
2023-04-19T02:16:13.606Z,101249.38
2023-04-19T02:19:40.477Z,101246.14
2023-04-19T02:23:06.999Z,101241.16
2023-04-19T02:26:35.391Z,101239.09
2023-04-19T02:30:02.267Z,101236.34
2023-04-19T02:33:33.605Z,101234.20
2023-04-19T02:37:00.725Z,101234.67
2023-04-19T02:40:28.330Z,101228.27
2023-04-19T02:43:55.171Z,101226.02
2023-04-19T02:47:22.116Z,101223.07
2023-04-19T02:50:48.880Z,101219.74
2023-04-19T02:54:16.210Z,101213.48
2023-04-19T02:57:43.083Z,101206.20
2023-04-19T03:01:10.575Z,101203.08
2023-04-19T03:04:38.112Z,101194.06
2023-04-19T03:08:04.906Z,101185.21
2023-04-19T03:11:32.163Z,101181.23
2023-04-19T03:14:59.077Z,101176.55
2023-04-19T03:18:26.264Z,101169.44
2023-04-19T03:21:54.636Z,101171.83
2023-04-19T03:25:22.297Z,101169.44
2023-04-19T03:28:56.052Z,101164.61
2023-04-19T03:32:37.348Z,101160.48
2023-04-19T03:36:04.740Z,101158.36
2023-04-19T03:39:31.775Z,101154.17
2023-04-19T03:43:01.924Z,101153.27
2023-04-19T03:46:32.017Z,101150.75
2023-04-19T03:49:59.256Z,101143.38
2023-04-19T03:53:26.996Z,101153.40
2023-04-19T03:56:54.282Z,101157.84
2023-04-19T04:00:21.959Z,101150.95
2023-04-19T04:03:52.868Z,101153.48
2023-04-19T04:07:21.521Z,101155.36
2023-04-19T04:10:48.445Z,101157.14
2023-04-19T04:14:15.225Z,101157.02
2023-04-19T04:17:42.601Z,101155.77
2023-04-19T04:21:09.890Z,101153.48
2023-04-19T04:24:43.256Z,101150.21
2023-04-19T04:28:20.285Z,101156.10
2023-04-19T04:31:47.453Z,101152.50
2023-04-19T04:35:15.651Z,101154.41
2023-04-19T04:38:47.612Z,101151.52
2023-04-19T04:42:15.949Z,101149.14
2023-04-19T04:45:44.876Z,101147.41
2023-04-19T04:49:12.773Z,101147.16
2023-04-19T04:52:42.762Z,101152.49
2023-04-19T04:56:18.019Z,101150.77
2023-04-19T04:59:44.971Z,101146.94
2023-04-19T05:03:12.586Z,101141.52
2023-04-19T05:06:46.001Z,101142.83
2023-04-19T05:10:18.041Z,101141.02
2023-04-19T05:13:47.826Z,101138.85
2023-04-19T05:17:14.811Z,101135.05
2023-04-19T05:20:44.033Z,101142.37
2023-04-19T05:24:23.644Z,101144.52
2023-04-19T05:27:51.330Z,101135.90
2023-04-19T05:31:18.415Z,101130.26
2023-04-19T05:34:55.109Z,101124.71
2023-04-19T05:38:22.540Z,101116.31
2023-04-19T05:41:50.615Z,101112.11
2023-04-19T05:45:19.976Z,101108.89
2023-04-19T05:48:46.855Z,101105.08
2023-04-19T05:52:42.606Z,101099.06
2023-04-19T05:56:09.828Z,101089.41
2023-04-19T05:59:36.552Z,101085.45
2023-04-19T06:03:03.376Z,101083.55
2023-04-19T06:06:30.439Z,101085.16
2023-04-19T06:09:58.151Z,101085.05
2023-04-19T06:13:25.081Z,101094.70
2023-04-19T06:16:53.044Z,101098.52
2023-04-19T06:20:22.094Z,101103.77
2023-04-19T06:24:03.848Z,101099.79
2023-04-19T06:27:30.767Z,101099.16
2023-04-19T06:30:57.940Z,101097.31
2023-04-19T06:34:25.121Z,101101.66
2023-04-19T06:37:52.364Z,101107.94
2023-04-19T06:41:19.688Z,101093.35
2023-04-19T06:44:45.973Z,101087.61
2023-04-19T06:48:12.852Z,101086.13
2023-04-19T06:51:41.611Z,101081.90
2023-04-19T06:55:08.993Z,101079.23
2023-04-19T06:58:39.750Z,101058.94
2023-04-19T07:02:09.860Z,101071.95
2023-04-19T07:05:39.568Z,101071.23
2023-04-19T07:09:07.827Z,101069.92
2023-04-19T07:12:34.899Z,101069.45
2023-04-19T07:16:05.741Z,101071.66
2023-04-19T07:19:33.367Z,101070.14
2023-04-19T07:23:03.437Z,101067.52
2023-04-19T07:26:30.499Z,101064.16
2023-04-19T07:29:57.587Z,101064.47
2023-04-19T07:33:28.117Z,101061.12
2023-04-19T07:36:55.330Z,101059.70
2023-04-19T07:40:22.072Z,101053.05
2023-04-19T07:43:50.148Z,101032.18
2023-04-19T07:47:17.166Z,101037.30
2023-04-19T07:50:44.085Z,101047.26
2023-04-19T07:54:10.967Z,101037.73
2023-04-19T07:57:37.989Z,101027.54
2023-04-19T08:01:05.656Z,101029.61
2023-04-19T08:04:33.074Z,101026.23
2023-04-19T08:08:00.538Z,101022.83
2023-04-19T08:11:27.613Z,101023.86
2023-04-19T08:15:02.684Z,101016.50
2023-04-19T08:18:38.542Z,101016.63
2023-04-19T08:22:06.152Z,101013.81
2023-04-19T08:25:35.113Z,101010.23
2023-04-19T08:29:02.066Z,101004.17
2023-04-19T08:32:30.497Z,100997.00
2023-04-19T08:36:25.578Z,100999.51
2023-04-19T08:39:59.851Z,100999.81
2023-04-19T08:43:33.713Z,100996.32
2023-04-19T08:47:00.464Z,101001.44
2023-04-19T08:50:33.277Z,101000.84
2023-04-19T08:54:05.666Z,101001.47
2023-04-19T08:57:34.188Z,101000.08
2023-04-19T09:01:02.936Z,100994.91
2023-04-19T09:04:36.737Z,100991.36
2023-04-19T09:08:24.757Z,100985.95
2023-04-19T09:11:51.873Z,100983.05
2023-04-19T09:15:36.265Z,100973.45
2023-04-19T09:22:36.283Z,100977.16
2023-04-19T09:26:22.944Z,100976.50
2023-04-19T09:29:59.906Z,100976.05
2023-04-19T09:33:40.432Z,100970.85
2023-04-19T09:37:35.067Z,100972.95
2023-04-19T09:41:20.740Z,100969.90
2023-04-19T09:48:42.589Z,100963.15
2023-04-19T09:52:21.904Z,100963.66
2023-04-19T09:56:01.227Z,100960.89
2023-04-19T09:59:33.215Z,100958.31
2023-04-19T10:03:04.697Z,100958.62
2023-04-19T10:06:48.568Z,100958.88
2023-04-19T10:10:36.281Z,100955.81
2023-04-19T10:14:20.174Z,100951.55
2023-04-19T10:17:47.268Z,100953.02
2023-04-19T10:21:16.433Z,100953.83
2023-04-19T10:25:03.418Z,100946.77
2023-04-19T10:28:31.550Z,100941.92
2023-04-19T10:31:59.390Z,100943.61
2023-04-19T10:35:29.587Z,100942.80
2023-04-19T10:38:57.607Z,100945.95
2023-04-19T10:42:24.265Z,100941.89
2023-04-19T10:45:51.440Z,100937.93
2023-04-19T10:49:18.129Z,100934.26
2023-04-19T10:52:45.068Z,100942.10
2023-04-19T10:56:12.290Z,100944.05
2023-04-19T10:59:40.659Z,100941.40
2023-04-19T11:03:51.976Z,100945.05
2023-04-19T11:07:21.490Z,100948.48
2023-04-19T11:10:50.883Z,100956.85
2023-04-19T11:14:24.117Z,100956.94
2023-04-19T11:18:08.772Z,100961.59
2023-04-19T11:21:42.717Z,100965.58
2023-04-19T11:25:12.599Z,100964.09
2023-04-19T11:28:39.768Z,100963.85
2023-04-19T11:32:07.885Z,100970.25
2023-04-19T11:35:34.353Z,100968.92
2023-04-19T11:39:01.252Z,100968.90
2023-04-19T11:42:28.390Z,100972.95
2023-04-19T11:45:56.097Z,100972.45
2023-04-19T11:49:32.608Z,100972.58
2023-04-19T11:53:00.437Z,100975.65
2023-04-19T11:56:27.194Z,100975.39
2023-04-19T12:00:11.315Z,100974.66
2023-04-19T12:03:47.050Z,100978.20
2023-04-19T12:07:14.193Z,100981.27
2023-04-19T12:10:41.105Z,100986.32
2023-04-19T12:14:16.057Z,100981.90
2023-04-19T12:17:59.885Z,100973.59
2023-04-19T12:21:31.862Z,100975.73
2023-04-19T12:24:58.443Z,100983.88
2023-04-19T12:28:25.986Z,100985.63
2023-04-19T12:31:53.139Z,100988.66
2023-04-19T12:35:20.481Z,100987.58
2023-04-19T12:38:47.539Z,100990.48
2023-04-19T12:42:14.433Z,100990.92
2023-04-19T12:45:41.293Z,100988.73
2023-04-19T12:49:08.519Z,100987.26
2023-04-19T12:52:36.158Z,100986.88
2023-04-19T12:56:02.880Z,100986.23
2023-04-19T12:59:33.086Z,100986.73
2023-04-19T13:03:00.391Z,100985.80
2023-04-19T13:06:27.973Z,100988.67
2023-04-19T13:09:58.597Z,100983.09
2023-04-19T13:13:26.237Z,100986.09
2023-04-19T13:16:53.833Z,100987.95
2023-04-19T13:20:22.001Z,100991.05
2023-04-19T13:23:48.868Z,100992.50
2023-04-19T13:27:16.650Z,100992.19
2023-04-19T13:30:43.938Z,100992.83
2023-04-19T13:34:11.024Z,100993.83
2023-04-19T13:37:42.710Z,100988.99
2023-04-19T13:41:09.479Z,100984.98
2023-04-19T13:44:36.996Z,100979.80
2023-04-19T13:48:06.660Z,100968.83
2023-04-19T13:51:46.429Z,100964.49
2023-04-19T13:55:20.859Z,100959.31
2023-04-19T13:58:48.515Z,100952.98
2023-04-19T14:02:15.820Z,100950.44
2023-04-19T14:05:43.364Z,100946.02
2023-04-19T14:09:10.667Z,100949.91
2023-04-19T14:12:37.805Z,100959.38
2023-04-19T14:16:05.073Z,100958.89
2023-04-19T14:19:32.540Z,100965.35
2023-04-19T14:23:00.730Z,100967.39
2023-04-19T14:26:28.091Z,100969.91
2023-04-19T14:29:55.014Z,100974.83
2023-04-19T14:33:22.563Z,100978.46
2023-04-19T14:36:51.498Z,100984.27
2023-04-19T14:40:20.823Z,100988.19
2023-04-19T14:43:48.053Z,100986.91
2023-04-19T14:47:14.774Z,100983.93
2023-04-19T14:50:41.683Z,100986.54
2023-04-19T14:54:08.636Z,100988.84
2023-04-19T14:57:37.434Z,100987.34
2023-04-19T15:01:14.167Z,100990.89
2023-04-19T15:04:41.532Z,100996.09
2023-04-19T15:08:17.364Z,100996.55
2023-04-19T15:11:54.430Z,100996.48
2023-04-19T15:15:21.567Z,100990.19
2023-04-19T15:18:49.106Z,100986.24
2023-04-19T15:22:16.114Z,100984.86
2023-04-19T15:25:43.370Z,100981.60
2023-04-19T15:29:11.130Z,100986.79
2023-04-19T15:32:39.103Z,100982.67
2023-04-19T15:36:06.886Z,100979.57
2023-04-19T15:39:33.664Z,100986.10
2023-04-19T15:43:03.620Z,100987.42
2023-04-19T15:46:31.296Z,100993.02
2023-04-19T15:49:59.350Z,100996.87
2023-04-19T15:53:26.101Z,101001.83
2023-04-19T15:56:52.792Z,100999.24
2023-04-19T16:00:27.091Z,101001.77
2023-04-19T16:03:54.868Z,100999.61
2023-04-19T16:07:21.979Z,101003.55
2023-04-19T16:10:49.535Z,101009.04
2023-04-19T16:14:16.129Z,101000.66
2023-04-19T16:17:42.985Z,100997.67
2023-04-19T16:21:12.079Z,100996.08
2023-04-19T16:24:38.839Z,100991.86
2023-04-19T16:28:06.290Z,100991.09
2023-04-19T16:31:33.437Z,100997.13
2023-04-19T16:35:01.933Z,101005.81
2023-04-19T16:38:28.494Z,101010.24
2023-04-19T16:41:55.739Z,101016.59
2023-04-19T16:45:22.867Z,101011.12
2023-04-19T16:48:50.156Z,101004.73
2023-04-19T16:52:26.027Z,101003.16
2023-04-19T16:55:55.701Z,101000.85
2023-04-19T16:59:23.500Z,101005.34
2023-04-19T17:02:51.171Z,101017.10
2023-04-19T17:06:20.326Z,101017.95
2023-04-19T17:09:47.503Z,101021.92
2023-04-19T17:13:15.097Z,101024.23
2023-04-19T17:16:42.075Z,101027.85
2023-04-19T17:20:14.314Z,101029.27
2023-04-19T17:23:42.070Z,101027.08
2023-04-19T17:27:09.564Z,101027.98
2023-04-19T17:30:36.844Z,101029.19
2023-04-19T17:34:06.296Z,101030.90
2023-04-19T17:37:41.882Z,101033.94
2023-04-19T17:41:18.615Z,101033.34
2023-04-19T17:44:48.197Z,101045.88
2023-04-19T17:48:17.792Z,101046.85
2023-04-19T17:51:44.424Z,101049.43
2023-04-19T17:55:13.156Z,101057.05
2023-04-19T17:58:40.506Z,101058.71
2023-04-19T18:02:10.406Z,101059.10
2023-04-19T18:05:39.013Z,101056.23
2023-04-19T18:09:08.040Z,101058.59
2023-04-19T18:12:35.079Z,101055.95
2023-04-19T18:16:03.743Z,101060.55
2023-04-19T18:19:32.549Z,101063.63
2023-04-19T18:23:01.383Z,101062.02
2023-04-19T18:26:37.316Z,101067.05
2023-04-19T18:30:09.871Z,101069.52
2023-04-19T18:33:37.279Z,101073.20
2023-04-19T18:37:17.623Z,101072.27
2023-04-19T18:40:46.858Z,101076.81
2023-04-19T18:44:39.033Z,101077.17
2023-04-19T18:48:05.161Z,101079.27
2023-04-19T18:51:33.783Z,101093.31
2023-04-19T18:55:00.942Z,101103.39
2023-04-19T18:58:29.555Z,101108.92
2023-04-19T19:01:56.843Z,101110.23
2023-04-19T19:05:24.264Z,101117.00
2023-04-19T19:08:51.771Z,101121.49
2023-04-19T19:12:20.617Z,101122.19
2023-04-19T19:15:53.269Z,101121.64
2023-04-19T19:19:23.421Z,101120.17
2023-04-19T19:22:51.953Z,101120.90
2023-04-19T19:26:18.950Z,101123.80
2023-04-19T19:29:47.136Z,101118.25
2023-04-19T19:33:14.770Z,101119.66
2023-04-19T19:36:41.803Z,101122.19
2023-04-19T19:40:11.364Z,101120.18
2023-04-19T19:43:40.337Z,101113.12
2023-04-19T19:47:10.279Z,101105.27
2023-04-19T19:51:10.842Z,101108.80
2023-04-19T19:54:25.100Z,101101.58
2023-04-19T20:01:27.429Z,101085.70
2023-04-19T20:04:54.530Z,101082.13
2023-04-19T20:08:25.522Z,101074.02
2023-04-19T20:11:53.977Z,101078.06
2023-04-19T20:15:22.596Z,101081.70
2023-04-19T20:18:50.145Z,101081.40
2023-04-19T20:22:17.336Z,101082.27
2023-04-19T20:25:44.180Z,101086.48
2023-04-19T20:29:10.996Z,101086.05
2023-04-19T20:32:44.849Z,101084.82
2023-04-19T20:36:14.171Z,101084.90
2023-04-19T20:39:40.770Z,101083.23
2023-04-19T20:43:08.533Z,101076.58
2023-04-19T20:46:37.556Z,101077.89
2023-04-19T20:50:04.534Z,101072.95
2023-04-19T20:53:31.493Z,101076.88
2023-04-19T20:57:04.925Z,101072.00
2023-04-19T21:00:34.670Z,101071.80
2023-04-19T21:04:03.241Z,101069.64
2023-04-19T21:07:30.897Z,101073.60
2023-04-19T21:10:59.705Z,101075.27
2023-04-19T21:14:30.277Z,101072.29
2023-04-19T21:17:59.910Z,101067.79
2023-04-19T21:21:32.278Z,101072.21
2023-04-19T21:25:00.697Z,101070.33
2023-04-19T21:28:28.876Z,101067.40
2023-04-19T21:31:56.512Z,101068.79
2023-04-19T21:35:24.281Z,101070.10
2023-04-19T21:38:52.182Z,101070.08
2023-04-19T21:42:19.191Z,101069.30
2023-04-19T21:45:49.099Z,101074.98
2023-04-19T21:49:16.895Z,101074.56
2023-04-19T21:52:44.395Z,101075.47
2023-04-19T21:56:12.969Z,101077.48
